Архив погоды в Невинномысске

Метеограмма Невинномысск
Четверг, 16 Августа
Время местн. Темп Ветер Видим Явления Облачность нижн/средн/верх Атм. давл. Влжн Точка росы ВНГО R Сост. почвы Tg s
Напр Скр Прв ур.ст ур.м изм
00:00 +21.7° В 3 - 20 км - ясно 731 760 -0.2 47% +9.9° более 2.5 км - - - -
Среда, 15 Августа
Время местн. Темп Ветер Видим Явления Облачность нижн/средн/верх Атм. давл. Влжн Точка росы ВНГО R Сост. почвы Tg s
Напр Скр Прв ур.ст ур.м изм
21:00 +23.5° В 2 - 20 км - ясно 731 760 +0.6 42% +9.8° более 2.5 км - - - -
18:00 +30.9° В 3 - 20 км - ясно 731 759 0 22% +7° более 2.5 км - - - -
15:00 +32.1° В 6 13 20 км - ясно 731 759 -0.7 20% +6.1° более 2.5 км - - - -
12:00 +31.1° В 5 13 20 км - ясно 731 760 -0.5 23% +7.7° более 2.5 км - - - -
09:00 +26.7° В 5 - 20 км - ясно 732 761 -0.3 36% +10.5° более 2.5 км - - - -
06:00 +12.2° штиль 0 - 20 км - ясно 732 762 +0.3 87% +10.1° более 2.5 км - Сухая (без трещин) - -
03:00 +13° Ю,Ю-З 1 - 20 км - ясно 732 762 -0.2 85% +10.5° более 2.5 км - - - -
00:00 +16.3° штиль 0 - 20 км - ясно 732 762 +0.1 69% +10.7° более 2.5 км - - - -
Вторник, 14 Августа
Время местн. Темп Ветер Видим Явления Облачность нижн/средн/верх Атм. давл. Влжн Точка росы ВНГО R Сост. почвы Tg s
Напр Скр Прв ур.ст ур.м изм
21:00 +21.9° В,Ю-В 1 - 20 км - ясно 732 761 +0.8 42% +8.5° более 2.5 км - - - -
18:00 +29.6° В 3 - 20 км - ясно 731 760 -0.2 21% +4.7° более 2.5 км - - - -
15:00 +31° В 3 - 20 км - переменная облачность 731 760 -0.8 20% +5.3° 1.5 км - - - -
12:00 +29.9° В 3 - 20 км - переменная облачность 732 761 -0.8 21% +5.3° 1.5 км - - - -
09:00 +22.9° З,С-З 1 - 20 км - ясно 733 762 +0.1 47% +11.1° более 2.5 км - - - -
06:00 +11.3° штиль 0 - 20 км - ясно 733 763 +0.3 92% +10° более 2.5 км - Сухая (без трещин) - -
03:00 +12.3° В 1 - 20 км - ясно 733 763 +0.2 84% +9.7° более 2.5 км - - - -
00:00 +14.3° Ю 1 - 20 км - ясно 732 763 +0.2 77% +10.3° более 2.5 км - - - -
Понедельник, 13 Августа
Время местн. Темп Ветер Видим Явления Облачность нижн/средн/верх Атм. давл. Влжн Точка росы ВНГО R Сост. почвы Tg s
Напр Скр Прв ур.ст ур.м изм
21:00 +17.8° Ю,Ю-З 1 - 20 км - ясно 732 762 +0.6 61% +10.3° более 2.5 км - - - -
18:00 +26.3° С 3 - 20 км - переменная облачность 732 761 -0.1 28% +6.4° 1.5 км - - - -
15:00 +26.7° З 2 - 20 км - незначительная облачность 732 761 -0.5 27% +6° 1.5 км - - - -
12:00 +24.4° З 3 - 20 км - переменная облачность 732 761 -0.5 42% +10.5° 1.5 км - - - -
09:00 +19.7° Ю 2 - 20 км - переменная облачность 733 762 +0.3 74% +15° 1.5 км - - - -
06:00 +15.1° штиль 0 - 20 км облака рассеиваются {ливневые осадки} облачно с прояснениями 732 762 +0.6 93% +14° 1.5 км - Влажная (без луж) - -
03:00 +14.4° Ю 1 - 20 км ливневый дождь облачно с прояснениями 732 762 +0.2 93% +13.3° 1.5 км - - - -
00:00 +14.6° В 1 - 20 км - ясно 732 762 -0.2 90% +12.9° более 2.5 км - - - -
Воскресенье, 12 Августа
Время местн. Темп Ветер Видим Явления Облачность нижн/средн/верх Атм. давл. Влжн Точка росы ВНГО R Сост. почвы Tg s
Напр Скр Прв ур.ст ур.м изм
21:00 +17.7° В 2 - 20 км - переменная облачность 732 762 +0.6 77% +13.7° более 2.5 км - - - -